Time;durP1;ratioP1;P1;durP2;ratioP2;P2;SDS_P1;SDS_P2;PMS_P1;PMS_P2;Temp;Humidity;BMP_temperature;BMP_pressure;BME280_temperature;BME280_humidity;BME280_pressure;Samples;Min_cycle;Max_cycle;Signal;HPM_P1;HPM_P2
2021/11/24 00:02:47;;;;;;;78.00;70.43;;;;;;;4.91;100.00;103117.59;2007429;71;32955;-75
2021/11/24 00:08:31;;;;;;;79.63;72.00;;;;;;;4.80;100.00;103119.45;2014865;71;33354;-71
2021/11/24 00:14:15;;;;;;;78.27;70.37;;;;;;;4.65;100.00;103107.61;2016400;71;32905;-71
2021/11/24 00:20:00;;;;;;;76.33;68.97;;;;;;;4.74;100.00;103109.22;2005561;71;32913;-72
2021/11/24 00:25:44;;;;;;;83.83;75.50;;;;;;;4.75;100.00;103104.87;2014849;71;32912;-77
2021/11/24 00:31:28;;;;;;;77.40;69.53;;;;;;;4.79;100.00;103106.20;2000622;71;33350;-71
2021/11/24 00:37:12;;;;;;;76.70;68.93;;;;;;;4.86;100.00;103091.16;2016609;71;33286;-71
2021/11/24 00:42:56;;;;;;;73.70;66.70;;;;;;;4.87;100.00;103095.62;2009717;71;33279;-76
2021/11/24 00:48:41;;;;;;;71.57;64.87;;;;;;;4.88;100.00;103088.53;2005405;71;32822;-70
2021/11/24 00:54:25;;;;;;;72.97;65.83;;;;;;;4.90;100.00;103080.08;2012864;71;33315;-76
2021/11/24 01:00:14;;;;;;;75.63;68.20;;;;;;;4.93;100.00;103076.41;2017205;70;32834;-75
2021/11/24 01:05:59;;;;;;;73.27;66.27;;;;;;;4.89;100.00;103060.47;2008180;71;33001;-75
2021/11/24 01:11:44;;;;;;;71.93;65.03;;;;;;;4.99;100.00;103056.89;2014753;71;33382;-71
2021/11/24 01:17:27;;;;;;;71.10;64.17;;;;;;;4.93;100.00;103053.52;2000733;71;32856;-71
2021/11/24 01:23:12;;;;;;;75.83;68.83;;;;;;;5.04;100.00;103048.38;2003616;71;32939;-70
2021/11/24 01:28:56;;;;;;;71.80;65.20;;;;;;;5.03;100.00;103045.29;2011084;71;32924;-75
2021/11/24 01:34:40;;;;;;;72.87;65.87;;;;;;;5.01;100.00;103037.73;2018243;71;32892;-70
2021/11/24 01:40:24;;;;;;;73.67;66.67;;;;;;;5.02;100.00;103035.83;1998236;71;33216;-71
2021/11/24 01:46:08;;;;;;;70.23;63.80;;;;;;;5.01;100.00;103027.23;2014762;71;33364;-75
2021/11/24 01:51:53;;;;;;;72.43;65.50;;;;;;;4.94;100.00;103027.70;2011210;71;32988;-75
2021/11/24 01:57:39;;;;;;;73.60;66.20;;;;;;;5.05;100.00;103023.89;2013068;71;32814;-75
2021/11/24 02:03:26;;;;;;;74.27;67.00;;;;;;;5.19;100.00;103018.00;2018225;71;32836;-73
2021/11/24 02:09:12;;;;;;;74.47;67.33;;;;;;;5.27;100.00;102998.58;2007462;71;32972;-74
2021/11/24 02:14:57;;;;;;;72.40;65.40;;;;;;;5.24;100.00;102996.23;2012973;71;33344;-72
2021/11/24 02:20:44;;;;;;;74.37;66.97;;;;;;;5.49;100.00;102987.86;2016436;71;32941;-72
2021/11/24 02:26:32;;;;;;;71.93;65.07;;;;;;;5.23;100.00;102979.36;2002632;71;33347;-74
2021/11/24 02:32:18;;;;;;;73.50;66.60;;;;;;;5.26;100.00;102976.20;2003909;71;33002;-71
2021/11/24 02:38:03;;;;;;;74.87;67.67;;;;;;;5.26;100.00;102967.11;2006120;71;32783;-72
2021/11/24 02:43:48;;;;;;;72.67;65.67;;;;;;;5.28;100.00;102956.20;2005879;71;32819;-75
2021/11/24 02:49:35;;;;;;;72.37;65.53;;;;;;;5.42;100.00;102947.52;2016769;71;32918;-71
2021/11/24 02:55:20;;;;;;;73.43;66.63;;;;;;;5.39;100.00;102943.80;2016319;71;32991;-76
2021/11/24 03:01:06;;;;;;;72.23;65.13;;;;;;;5.19;100.00;102924.33;2010874;71;32823;-72
2021/11/24 03:06:50;;;;;;;72.67;65.77;;;;;;;5.34;100.00;102917.36;2016793;71;32931;-71
2021/11/24 03:12:34;;;;;;;74.83;67.53;;;;;;;5.27;100.00;102918.67;2009942;71;32844;-76
2021/11/24 03:18:19;;;;;;;75.63;68.63;;;;;;;5.24;100.00;102912.71;1997023;71;32765;-75
2021/11/24 03:24:06;;;;;;;74.83;67.47;;;;;;;5.40;100.00;102898.10;1977688;71;32947;-76
2021/11/24 03:29:50;;;;;;;76.33;68.90;;;;;;;5.33;100.00;102901.34;1998816;71;33287;-72
2021/11/24 03:35:36;;;;;;;76.70;69.27;;;;;;;5.41;100.00;102897.58;2018369;71;32907;-76
2021/11/24 03:41:21;;;;;;;77.13;69.63;;;;;;;5.52;100.00;102890.67;2017129;71;32858;-77
2021/11/24 03:47:05;;;;;;;76.20;68.67;;;;;;;5.53;100.00;102888.22;2014824;71;33389;-72
2021/11/24 03:52:50;;;;;;;76.40;69.03;;;;;;;5.44;100.00;102881.48;2011432;71;33343;-71
2021/11/24 03:58:35;;;;;;;75.03;67.27;;;;;;;5.51;100.00;102871.91;2005398;71;32856;-76
2021/11/24 04:04:20;;;;;;;75.80;68.23;;;;;;;5.33;100.00;102840.72;2006071;71;32855;-76
2021/11/24 04:10:06;;;;;;;79.47;71.80;;;;;;;5.45;100.00;102848.75;2000560;71;32857;-71
2021/11/24 04:15:51;;;;;;;78.33;70.13;;;;;;;5.41;100.00;102838.33;1991497;71;32895;-77
2021/11/24 04:21:35;;;;;;;80.07;72.23;;;;;;;5.41;100.00;102838.33;2014601;71;32820;-72
2021/11/24 04:27:20;;;;;;;83.77;75.37;;;;;;;5.42;100.00;102827.63;2014780;71;32829;-76
2021/11/24 04:33:04;;;;;;;86.23;77.13;;;;;;;5.48;100.00;102829.03;2000679;71;32855;-72
2021/11/24 04:38:48;;;;;;;84.57;75.70;;;;;;;5.43;100.00;102812.80;2016734;71;32817;-76
2021/11/24 04:44:32;;;;;;;88.03;78.90;;;;;;;5.43;100.00;102819.14;2005745;71;33295;-76
2021/11/24 04:50:17;;;;;;;91.47;82.20;;;;;;;5.39;100.00;102807.38;2000476;71;32919;-71
2021/11/24 04:56:01;;;;;;;89.90;80.40;;;;;;;5.35;100.00;102806.91;2013054;71;32885;-76
2021/11/24 05:01:45;;;;;;;87.50;78.40;;;;;;;5.46;100.00;102802.22;1950751;71;39781;-76
2021/11/24 05:07:29;;;;;;;88.00;79.20;;;;;;;5.41;100.00;102787.34;2002376;71;33260;-76
2021/11/24 05:13:14;;;;;;;87.50;78.40;;;;;;;5.41;100.00;102785.44;2011040;71;32887;-72
2021/11/24 05:18:58;;;;;;;86.33;77.53;;;;;;;5.38;100.00;102778.97;1994593;71;32938;-71
2021/11/24 05:24:42;;;;;;;86.00;76.83;;;;;;;5.43;100.00;102770.91;2008073;71;32874;-71
2021/11/24 05:30:27;;;;;;;86.77;77.80;;;;;;;5.39;100.00;102758.59;1994826;71;33324;-77
2021/11/24 05:36:12;;;;;;;88.40;79.53;;;;;;;5.52;100.00;102754.23;2014896;71;32819;-71
2021/11/24 05:41:56;;;;;;;88.13;79.27;;;;;;;5.52;100.00;102752.30;2011101;71;32908;-71
2021/11/24 05:47:53;;;;;;;90.50;81.23;;;;;;;5.46;100.00;102742.96;2016623;71;33400;-77
2021/11/24 05:53:35;;;;;;;90.30;81.30;;;;;;;5.54;100.00;102741.07;1996841;71;32809;-71
2021/11/24 05:59:24;;;;;;;88.60;79.90;;;;;;;5.53;100.00;102738.84;1995083;71;33296;-76
2021/11/24 06:05:10;;;;;;;86.50;77.73;;;;;;;5.71;100.00;102743.79;2014794;71;32961;-72
2021/11/24 06:10:58;;;;;;;88.13;79.20;;;;;;;5.73;100.00;102735.66;2000155;71;32832;-76
2021/11/24 06:16:44;;;;;;;83.33;75.10;;;;;;;5.72;100.00;102735.33;2000402;71;33017;-76
2021/11/24 06:22:28;;;;;;;85.03;76.67;;;;;;;5.78;100.00;102733.62;2006446;71;32843;-71
2021/11/24 06:28:17;;;;;;;85.87;77.67;;;;;;;5.69;100.00;102721.92;2000523;71;32793;-72
2021/11/24 06:34:01;;;;;;;82.17;73.30;;;;;;;5.63;100.00;102713.66;2005692;71;32879;-71
2021/11/24 06:39:48;;;;;;;84.63;76.03;;;;;;;5.68;100.00;102718.02;2006057;71;33272;-71
2021/11/24 06:45:35;;;;;;;84.93;76.60;;;;;;;5.65;100.00;102702.72;2009427;71;34189;-71
2021/11/24 06:51:19;;;;;;;85.87;76.63;;;;;;;5.70;100.00;102701.58;2010922;71;32835;-70
2021/11/24 06:57:04;;;;;;;83.80;75.13;;;;;;;5.78;100.00;102688.13;2000524;71;33337;-69
2021/11/24 07:02:49;;;;;;;85.10;76.70;;;;;;;5.73;100.00;102686.55;2012964;71;32859;-76
2021/11/24 07:08:33;;;;;;;83.73;75.60;;;;;;;5.68;100.00;102692.69;2005678;71;32926;-76
2021/11/24 07:14:19;;;;;;;83.70;75.47;;;;;;;5.67;100.00;102679.95;2002380;71;33288;-71
2021/11/24 07:20:04;;;;;;;84.70;76.43;;;;;;;5.63;100.00;102680.05;2004447;71;33183;-76
2021/11/24 07:25:51;;;;;;;84.93;76.13;;;;;;;5.58;100.00;102674.82;2006088;71;33330;-71
2021/11/24 07:31:35;;;;;;;86.27;77.63;;;;;;;5.52;100.00;102678.43;2008188;71;32973;-78
2021/11/24 07:37:19;;;;;;;85.23;76.37;;;;;;;5.55;100.00;102682.99;2006077;71;32844;-76
2021/11/24 07:43:04;;;;;;;81.43;73.40;;;;;;;5.44;100.00;102677.53;2016541;71;32883;-71
2021/11/24 07:48:48;;;;;;;81.67;73.37;;;;;;;5.60;100.00;102674.10;1999989;71;32899;-72
2021/11/24 07:54:32;;;;;;;82.23;74.33;;;;;;;5.52;100.00;102668.22;2002410;71;33264;-70
2021/11/24 08:00:17;;;;;;;79.93;72.07;;;;;;;5.51;100.00;102663.80;1996828;71;32806;-71
2021/11/24 08:06:02;;;;;;;84.70;76.33;;;;;;;5.55;100.00;102659.56;2002395;71;33293;-69
2021/11/24 08:11:46;;;;;;;89.17;80.57;;;;;;;5.65;100.00;102648.97;2007889;71;32767;-76
2021/11/24 08:17:30;;;;;;;89.33;81.10;;;;;;;5.65;100.00;102645.39;1997799;71;33301;-70
2021/11/24 08:23:15;;;;;;;89.93;81.80;;;;;;;5.70;100.00;102648.34;2016546;71;33347;-72
2021/11/24 08:28:58;;;;;;;82.37;74.40;;;;;;;5.80;100.00;102635.00;2010902;71;32870;-76
2021/11/24 08:34:43;;;;;;;87.60;79.33;;;;;;;5.86;100.00;102632.27;1997856;71;33267;-78
2021/11/24 08:40:28;;;;;;;86.30;78.07;;;;;;;5.90;100.00;102630.79;1999198;71;32854;-78
2021/11/24 08:46:12;;;;;;;81.47;73.20;;;;;;;6.00;100.00;102629.52;2009350;71;32934;-69
2021/11/24 08:51:56;;;;;;;87.27;79.10;;;;;;;6.11;100.00;102625.63;2005546;71;32946;-77
2021/11/24 08:57:41;;;;;;;84.00;76.13;;;;;;;6.19;100.00;102618.52;2009703;71;32849;-70
2021/11/24 09:03:27;;;;;;;85.77;77.67;;;;;;;6.25;100.00;102616.26;2005611;70;32838;-77
2021/11/24 09:09:11;;;;;;;89.30;80.70;;;;;;;6.35;100.00;102603.41;1998383;71;32824;-70
2021/11/24 09:14:55;;;;;;;87.03;78.93;;;;;;;6.48;100.00;102594.26;1991412;70;33414;-70
2021/11/24 09:20:40;;;;;;;85.50;77.73;;;;;;;6.52;100.00;102585.86;2018385;70;33291;-77
2021/11/24 09:26:38;;;;;;;85.93;77.77;;;;;;;6.67;100.00;102583.70;2016838;71;33059;-77
2021/11/24 09:32:16;;;;;;;85.10;77.23;;;;;;;6.65;100.00;102572.87;1995093;71;32761;-75
2021/11/24 09:38:00;;;;;;;86.23;77.93;;;;;;;6.79;100.00;102562.63;2002283;71;32862;-76
2021/11/24 09:43:49;;;;;;;76.63;68.67;;;;;;;6.91;100.00;102558.64;2011695;71;32738;-70
2021/11/24 09:49:35;;;;;;;85.63;77.03;;;;;;;6.90;100.00;102550.03;2014627;71;33431;-71
2021/11/24 09:55:23;;;;;;;83.37;75.03;;;;;;;7.02;100.00;102547.73;2009795;71;32754;-77
2021/11/24 10:01:10;;;;;;;80.97;72.57;;;;;;;6.84;100.00;102493.25;2014858;71;32821;-72
2021/11/24 10:06:55;;;;;;;86.53;77.83;;;;;;;7.25;100.00;102541.14;2004084;71;32897;-77
2021/11/24 10:12:38;;;;;;;83.27;74.90;;;;;;;7.35;100.00;102537.89;2004135;71;32855;-77
2021/11/24 10:18:27;;;;;;;81.97;73.63;;;;;;;7.35;100.00;102532.90;2014889;71;32819;-71
2021/11/24 10:24:12;;;;;;;86.73;77.77;;;;;;;7.40;100.00;102517.87;2062483;69;33352;-78
2021/11/24 10:29:57;;;;;;;83.83;74.37;;;;;;;7.39;100.00;102522.55;1995142;71;33257;-71
2021/11/24 10:35:42;;;;;;;87.40;78.23;;;;;;;7.53;100.00;102511.69;1991357;71;32921;-77
2021/11/24 10:41:36;;;;;;;85.00;76.07;;;;;;;7.55;100.00;102510.09;2016486;71;32836;-72
2021/11/24 10:47:22;;;;;;;81.20;72.77;;;;;;;7.63;100.00;102496.83;2013143;71;32928;-71
2021/11/24 10:53:07;;;;;;;79.20;71.27;;;;;;;7.66;100.00;102483.08;2013260;71;33326;-71
2021/11/24 10:58:56;;;;;;;78.93;70.90;;;;;;;7.70;100.00;102478.25;2015379;71;33419;-78
2021/11/24 11:05:16;;;;;;;82.53;74.27;;;;;;;7.71;100.00;102469.42;2013639;71;33354;-77
2021/11/24 11:11:12;;;;;;;81.40;73.07;;;;;;;7.74;100.00;102453.77;2014644;71;33349;-70
2021/11/24 11:16:58;;;;;;;84.40;75.53;;;;;;;7.82;100.00;102447.95;1995028;71;33310;-77
2021/11/24 11:23:08;;;;;;;82.43;74.03;;;;;;;7.86;100.00;102425.66;2018329;71;32846;-75
2021/11/24 11:28:55;;;;;;;83.63;74.63;;;;;;;8.04;100.00;102413.77;2015057;71;32958;-70
2021/11/24 11:34:41;;;;;;;80.77;72.37;;;;;;;8.12;100.00;102400.47;2013093;71;32839;-69
2021/11/24 11:40:27;;;;;;;76.33;68.57;;;;;;;8.24;100.00;102390.30;2009175;71;32881;-75
2021/11/24 11:46:18;;;;;;;76.43;68.87;;;;;;;8.38;100.00;102377.17;2011203;71;32837;-70
2021/11/24 11:52:07;;;;;;;71.83;64.87;;;;;;;8.37;100.00;102363.55;2013090;71;33038;-71
2021/11/24 11:57:52;;;;;;;71.70;64.40;;;;;;;8.39;100.00;102348.91;2016404;71;33427;-79
2021/11/24 12:04:04;;;;;;;73.80;66.80;;;;;;;8.48;100.00;102330.89;2016545;71;33420;-79
2021/11/24 12:09:57;;;;;;;67.57;60.67;;;;;;;8.61;100.00;102316.85;1996916;71;33254;-72
2021/11/24 12:15:43;;;;;;;67.10;60.87;;;;;;;8.67;100.00;102293.76;2012828;71;33321;-74
2021/11/24 12:21:27;;;;;;;67.60;61.13;;;;;;;8.75;100.00;102282.87;2010534;71;32763;-78
2021/11/24 12:27:22;;;;;;;66.00;59.37;;;;;;;8.84;100.00;102280.91;1998517;71;32909;-71
2021/11/24 12:33:08;;;;;;;60.30;54.93;;;;;;;8.88;100.00;102266.87;2004324;71;32747;-71
2021/11/24 12:38:58;;;;;;;60.77;55.70;;;;;;;8.97;100.00;102251.58;1997053;71;32742;-79
2021/11/24 12:44:51;;;;;;;62.30;56.77;;;;;;;8.92;100.00;102232.59;2007527;71;32787;-78
2021/11/24 12:50:38;;;;;;;64.50;58.60;;;;;;;8.91;100.00;102212.87;2008099;71;33265;-72
2021/11/24 12:56:25;;;;;;;63.53;57.93;;;;;;;8.90;100.00;102194.02;2013033;71;33372;-71
2021/11/24 13:02:10;;;;;;;66.63;60.67;;;;;;;8.88;100.00;102178.20;2009141;71;32828;-72
2021/11/24 13:07:57;;;;;;;65.80;59.83;;;;;;;8.93;100.00;102165.84;1991365;71;33429;-70
2021/11/24 13:13:41;;;;;;;63.37;57.87;;;;;;;8.91;100.00;102152.77;2002528;71;32801;-75
2021/11/24 13:19:51;;;;;;;60.87;55.47;;;;;;;8.93;100.00;102153.38;2011341;71;32895;-76
2021/11/24 13:25:44;;;;;;;59.77;54.67;;;;;;;8.78;100.00;102151.63;2006134;71;32946;-76
2021/11/24 13:31:29;;;;;;;59.50;54.43;;;;;;;8.72;100.00;102139.30;1991227;71;32740;-75
2021/11/24 13:37:26;;;;;;;60.60;55.60;;;;;;;8.79;100.00;102124.23;2004284;71;32744;-76
2021/11/24 13:43:10;;;;;;;54.53;50.33;;;;;;;8.78;100.00;102118.92;1996906;71;32922;-75
2021/11/24 13:49:09;;;;;;;51.70;47.90;;;;;;;8.80;100.00;102114.84;2018152;71;32845;-69
2021/11/24 13:54:56;;;;;;;52.77;48.87;;;;;;;8.81;100.00;102094.37;2016780;71;32972;-75
2021/11/24 14:00:41;;;;;;;51.57;47.87;;;;;;;8.71;100.00;102081.66;2005700;71;33549;-76
2021/11/24 14:06:40;;;;;;;50.47;46.87;;;;;;;8.78;100.00;102069.90;2017169;71;32857;-76
2021/11/24 14:12:38;;;;;;;52.47;48.87;;;;;;;8.71;100.00;102056.73;2014975;71;32833;-77
2021/11/24 14:18:23;;;;;;;57.80;53.50;;;;;;;8.64;100.00;102049.11;2000851;71;32862;-67
2021/11/24 14:24:09;;;;;;;66.37;60.83;;;;;;;8.67;100.00;102042.53;1962531;72;32907;-68
2021/11/24 14:29:53;;;;;;;63.53;58.53;;;;;;;8.58;100.00;102032.06;1994631;71;32922;-68
2021/11/24 14:35:37;;;;;;;51.10;47.50;;;;;;;8.71;100.00;102027.64;2000456;71;32904;-76
2021/11/24 14:41:23;;;;;;;53.90;50.20;;;;;;;8.59;100.00;102019.91;1991405;71;33367;-70
2021/11/24 14:47:07;;;;;;;53.97;50.27;;;;;;;8.45;100.00;102015.70;2003676;71;33384;-74
2021/11/24 14:52:53;;;;;;;54.93;50.90;;;;;;;8.30;100.00;102009.27;2009804;71;32850;-77
2021/11/24 14:58:37;;;;;;;52.20;48.63;;;;;;;8.33;100.00;102009.34;1998533;71;33564;-71
2021/11/24 15:04:24;;;;;;;55.40;51.50;;;;;;;8.33;100.00;101996.35;2011655;71;33418;-75
2021/11/24 15:10:09;;;;;;;51.20;47.60;;;;;;;8.35;100.00;101980.86;2000377;71;32826;-71
2021/11/24 15:15:54;;;;;;;50.60;46.97;;;;;;;8.40;100.00;101979.59;2018575;71;33012;-79
2021/11/24 15:21:42;;;;;;;52.93;49.23;;;;;;;8.48;100.00;101972.29;2010023;71;32841;-77
2021/11/24 15:27:26;;;;;;;51.20;47.80;;;;;;;8.50;100.00;101966.83;1994792;71;33412;-71
2021/11/24 15:33:10;;;;;;;49.63;46.23;;;;;;;8.47;100.00;101962.33;2016529;71;32992;-71
2021/11/24 15:38:56;;;;;;;67.47;61.07;;;;;;;8.32;100.00;101942.59;1991431;70;32871;-78
2021/11/24 15:44:41;;;;;;;72.40;65.07;;;;;;;8.29;100.00;101941.67;2002484;71;32871;-71
2021/11/24 15:50:26;;;;;;;56.20;51.60;;;;;;;8.43;100.00;101938.41;2006144;71;32811;-77
2021/11/24 15:56:11;;;;;;;51.93;48.13;;;;;;;8.41;100.00;101939.22;2011155;71;32826;-70
2021/11/24 16:01:56;;;;;;;53.17;49.27;;;;;;;8.32;100.00;101924.61;2018547;70;33322;-79
2021/11/24 16:07:43;;;;;;;54.27;50.30;;;;;;;8.35;100.00;101909.72;2013468;71;32862;-74
2021/11/24 16:13:28;;;;;;;54.70;50.70;;;;;;;8.35;100.00;101900.03;1997604;71;33307;-76
2021/11/24 16:19:14;;;;;;;53.73;49.87;;;;;;;8.37;100.00;101901.19;2009963;71;32900;-76
2021/11/24 16:24:59;;;;;;;58.07;53.77;;;;;;;8.34;100.00;101886.45;1995811;71;33352;-77
2021/11/24 16:30:45;;;;;;;56.43;51.97;;;;;;;8.21;100.00;101879.24;2007018;71;32943;-76
2021/11/24 16:36:30;;;;;;;54.13;50.13;;;;;;;8.24;100.00;101865.75;2002043;71;32895;-72
2021/11/24 16:42:16;;;;;;;54.20;50.30;;;;;;;8.38;100.00;101867.73;1995156;71;32753;-71
2021/11/24 16:48:03;;;;;;;50.50;47.10;;;;;;;8.20;100.00;101867.33;1995259;71;33243;-71
2021/11/24 16:53:49;;;;;;;50.03;46.70;;;;;;;8.09;100.00;101857.11;2016952;71;33334;-80
2021/11/24 16:59:34;;;;;;;48.50;45.30;;;;;;;8.07;100.00;101851.00;2009270;71;33276;-70
2021/11/24 17:05:20;;;;;;;47.47;44.40;;;;;;;8.05;100.00;101850.38;2014779;71;32850;-72
2021/11/24 17:11:05;;;;;;;49.90;46.50;;;;;;;8.10;100.00;101844.12;2018568;71;33303;-71
2021/11/24 17:16:52;;;;;;;49.27;46.03;;;;;;;7.95;100.00;101850.72;2004396;71;32788;-72
2021/11/24 17:22:36;;;;;;;49.83;46.40;;;;;;;8.11;100.00;101849.95;2009124;71;33401;-80
2021/11/24 17:28:22;;;;;;;49.93;46.47;;;;;;;8.20;100.00;101838.27;2012884;71;33426;-71
2021/11/24 17:34:07;;;;;;;60.60;55.37;;;;;;;8.18;100.00;101838.20;2014717;71;32927;-75
2021/11/24 17:39:53;;;;;;;51.67;48.17;;;;;;;8.21;100.00;101829.42;2016584;71;33382;-75
2021/11/24 17:45:38;;;;;;;51.50;47.97;;;;;;;8.25;100.00;101823.69;2009400;71;32919;-77
2021/11/24 17:51:23;;;;;;;54.27;50.27;;;;;;;8.12;100.00;101821.20;2008011;71;32762;-75
2021/11/24 17:57:08;;;;;;;51.13;47.37;;;;;;;8.09;100.00;101821.13;2005920;71;32825;-76
2021/11/24 18:02:53;;;;;;;54.73;50.93;;;;;;;8.07;100.00;101819.17;2014784;71;32933;-70
2021/11/24 18:08:41;;;;;;;57.13;52.43;;;;;;;7.99;100.00;101807.11;2016920;71;32916;-70
2021/11/24 18:14:25;;;;;;;47.53;44.53;;;;;;;8.07;100.00;101791.50;2002528;71;33325;-77
2021/11/24 18:20:11;;;;;;;50.33;46.80;;;;;;;8.12;100.00;101799.06;2004032;71;32839;-71
2021/11/24 18:25:55;;;;;;;47.10;43.90;;;;;;;8.02;100.00;101794.70;2018393;71;32951;-71
2021/11/24 18:31:40;;;;;;;47.07;43.80;;;;;;;8.12;100.00;101793.00;2015026;71;33395;-71
2021/11/24 18:37:24;;;;;;;50.00;46.50;;;;;;;8.01;100.00;101786.94;2006203;71;33327;-80
2021/11/24 18:43:09;;;;;;;51.03;47.53;;;;;;;7.93;100.00;101782.33;1991407;71;32831;-71
2021/11/24 18:48:53;;;;;;;48.63;45.03;;;;;;;7.84;100.00;101780.48;2014772;71;33349;-70
2021/11/24 18:54:37;;;;;;;47.30;44.20;;;;;;;7.84;100.00;101769.42;2011301;71;32936;-72
2021/11/24 19:00:21;;;;;;;51.33;47.83;;;;;;;7.92;100.00;101773.73;2009721;71;32943;-71
2021/11/24 19:06:06;;;;;;;50.87;47.33;;;;;;;7.72;100.00;101778.30;2011661;71;32829;-76
2021/11/24 19:11:50;;;;;;;49.73;46.33;;;;;;;7.60;100.00;101783.02;2012943;71;32940;-74
2021/11/24 19:17:35;;;;;;;48.60;45.50;;;;;;;7.58;100.00;101782.41;2009513;71;32841;-71
2021/11/24 19:23:21;;;;;;;47.60;44.50;;;;;;;7.60;100.00;101763.66;2007921;71;33361;-76
2021/11/24 19:29:06;;;;;;;51.13;47.73;;;;;;;7.45;100.00;101766.92;2005795;71;32828;-72
2021/11/24 19:34:51;;;;;;;49.90;46.70;;;;;;;7.10;100.00;101769.69;2011138;71;33393;-75
2021/11/24 19:40:36;;;;;;;50.90;47.50;;;;;;;7.05;100.00;101766.83;2000682;71;32944;-74
2021/11/24 19:46:20;;;;;;;50.67;47.33;;;;;;;7.07;100.00;101783.99;2016946;71;33297;-70
2021/11/24 19:52:05;;;;;;;52.53;49.03;;;;;;;7.24;100.00;101792.41;2011844;71;32766;-72
2021/11/24 19:57:50;;;;;;;52.80;49.20;;;;;;;7.22;100.00;101787.14;1997155;71;33235;-75
2021/11/24 20:03:35;;;;;;;52.23;48.57;;;;;;;7.31;100.00;101784.86;2011651;71;32746;-72
2021/11/24 20:09:19;;;;;;;52.67;48.97;;;;;;;7.34;100.00;101782.98;2015074;71;32901;-72
2021/11/24 20:15:04;;;;;;;52.13;48.50;;;;;;;7.48;100.00;101778.89;2017016;71;32951;-73
2021/11/24 20:20:48;;;;;;;52.90;49.10;;;;;;;7.45;100.00;101770.22;2000208;71;32890;-74
2021/11/24 20:26:32;;;;;;;53.60;49.80;;;;;;;7.53;100.00;101774.83;2007998;71;32856;-73
2021/11/24 20:32:17;;;;;;;52.27;48.57;;;;;;;7.41;100.00;101785.07;2014761;71;32831;-72
2021/11/24 20:38:01;;;;;;;54.87;50.47;;;;;;;7.42;100.00;101788.14;1991871;71;32813;-71
2021/11/24 20:43:46;;;;;;;53.20;49.03;;;;;;;7.78;100.00;101782.33;2014733;71;32938;-71
2021/11/24 20:49:31;;;;;;;52.10;48.40;;;;;;;7.91;100.00;101775.68;2013060;71;32915;-72
2021/11/24 20:55:16;;;;;;;51.90;48.10;;;;;;;7.67;100.00;101778.19;2006132;71;33361;-72
2021/11/24 21:01:01;;;;;;;51.17;47.43;;;;;;;7.62;100.00;101774.77;2018404;70;33394;-72
2021/11/24 21:06:45;;;;;;;53.20;49.60;;;;;;;7.51;100.00;101764.58;2018367;71;33404;-72
2021/11/24 21:12:29;;;;;;;55.20;51.40;;;;;;;7.58;100.00;101754.22;1998480;71;32902;-74
2021/11/24 21:18:13;;;;;;;58.00;54.17;;;;;;;7.38;100.00;101741.34;2009333;71;32940;-70
2021/11/24 21:24:00;;;;;;;56.73;52.80;;;;;;;7.13;100.00;101723.65;1956450;72;33008;-72
2021/11/24 21:29:46;;;;;;;55.43;51.43;;;;;;;7.24;100.00;101722.78;2003893;70;33000;-71
2021/11/24 21:35:31;;;;;;;58.00;53.73;;;;;;;7.19;100.00;101722.66;2013300;71;32789;-71
2021/11/24 21:41:15;;;;;;;63.30;58.77;;;;;;;7.24;100.00;101708.97;2009671;71;32870;-71
2021/11/24 21:47:01;;;;;;;60.60;56.30;;;;;;;7.23;100.00;101690.70;2014992;71;32898;-71
2021/11/24 21:52:51;;;;;;;61.33;56.97;;;;;;;7.21;100.00;101692.04;2004288;71;32858;-73
2021/11/24 21:58:31;;;;;;;61.13;56.83;;;;;;;7.17;100.00;101688.08;2000245;71;32791;-75
2021/11/24 22:04:15;;;;;;;60.70;56.40;;;;;;;6.93;100.00;101696.09;2014993;71;32915;-75
2021/11/24 22:16:01;;;;;;;60.07;55.77;;;;;;;6.99;100.00;101705.63;2013971;71;32828;-75
2021/11/24 22:21:46;;;;;;;59.23;54.97;;;;;;;6.50;100.00;101699.19;2000097;71;33053;-72
2021/11/24 22:27:29;;;;;;;61.60;57.40;;;;;;;6.49;100.00;101717.66;2016554;71;33023;-75
2021/11/24 22:33:13;;;;;;;61.93;57.67;;;;;;;6.18;100.00;101719.31;2016813;71;33296;-72
2021/11/24 22:38:58;;;;;;;61.33;57.13;;;;;;;5.99;100.00;101723.22;2018559;71;32902;-75
2021/11/24 22:44:42;;;;;;;61.40;57.23;;;;;;;5.84;100.00;101721.67;2018493;71;32826;-75
2021/11/24 22:50:27;;;;;;;64.57;59.97;;;;;;;5.64;100.00;101718.88;1995225;71;33243;-72
2021/11/24 22:56:13;;;;;;;63.33;58.80;;;;;;;5.75;100.00;101736.00;2009990;71;32744;-77
2021/11/24 23:01:57;;;;;;;64.67;60.10;;;;;;;5.66;100.00;101736.86;1998394;71;32898;-75
2021/11/24 23:07:44;;;;;;;63.43;59.13;;;;;;;5.59;100.00;101747.66;2016581;71;32971;-76
2021/11/24 23:13:28;;;;;;;56.87;52.40;;;;;;;5.73;100.00;101748.66;1991453;71;32780;-72
2021/11/24 23:19:13;;;;;;;60.07;55.77;;;;;;;5.84;100.00;101742.34;2011533;71;32757;-71
2021/11/24 23:24:57;;;;;;;59.00;54.80;;;;;;;5.91;100.00;101740.91;1946232;72;33343;-72
2021/11/24 23:30:42;;;;;;;58.10;53.67;;;;;;;5.93;100.00;101745.66;2018321;71;32912;-72
2021/11/24 23:36:29;;;;;;;62.97;58.43;;;;;;;5.88;100.00;101743.59;2014780;71;32901;-73
2021/11/24 23:42:13;;;;;;;61.43;56.70;;;;;;;6.05;100.00;101745.70;2011194;71;32938;-75
2021/11/24 23:47:58;;;;;;;58.87;54.43;;;;;;;6.23;100.00;101747.88;2004000;71;33316;-74
2021/11/24 23:53:44;;;;;;;59.03;54.63;;;;;;;6.27;100.00;101751.02;2014730;71;33409;-73
2021/11/24 23:59:28;;;;;;;61.30;56.80;;;;;;;6.33;100.00;101744.00;2013426;71;32901;-74
